createdAt,value
2019-04-22T00:01:45.596Z,9.27
2019-04-22T00:04:17.750Z,9.94
2019-04-22T00:07:03.102Z,9.88
2019-04-22T00:09:38.815Z,9.85
2019-04-22T00:12:06.350Z,9.89
2019-04-22T00:14:28.327Z,9.86
2019-04-22T00:19:29.154Z,9.91
2019-04-22T00:22:03.316Z,9.83
2019-04-22T00:24:24.506Z,9.84
2019-04-22T00:26:58.830Z,9.84
2019-04-22T00:29:46.259Z,9.82
2019-04-22T00:31:46.868Z,9.74
2019-04-22T00:34:16.756Z,9.68
2019-04-22T00:36:42.087Z,9.60
2019-04-22T00:39:17.035Z,9.64
2019-04-22T00:41:46.652Z,9.63
2019-04-22T00:44:12.585Z,9.50
2019-04-22T00:46:38.054Z,9.44
2019-04-22T00:49:53.005Z,9.34
2019-04-22T00:51:36.539Z,9.37
2019-04-22T00:54:00.997Z,9.40
2019-04-22T00:56:27.741Z,9.48
2019-04-22T00:58:50.317Z,9.46
2019-04-22T01:01:26.250Z,9.53
2019-04-22T01:04:05.624Z,9.52
2019-04-22T01:06:29.086Z,9.46
2019-04-22T01:11:23.078Z,9.26
2019-04-22T01:13:46.369Z,9.09
2019-04-22T01:16:17.316Z,8.85
2019-04-22T01:18:44.127Z,8.70
2019-04-22T01:21:23.140Z,8.65
2019-04-22T01:23:34.659Z,8.55
2019-04-22T01:26:06.415Z,8.43
2019-04-22T01:28:36.761Z,8.51
2019-04-22T01:31:00.396Z,8.60
2019-04-22T01:33:29.435Z,8.72
2019-04-22T01:36:08.045Z,8.83
2019-04-22T01:38:37.309Z,8.91
2019-04-22T01:41:16.486Z,9.01
2019-04-22T01:43:42.628Z,9.01
2019-04-22T01:46:08.343Z,8.92
2019-04-22T01:48:44.807Z,8.96
2019-04-22T01:51:01.702Z,8.94
2019-04-22T01:53:36.419Z,9.00
2019-04-22T01:55:59.031Z,8.98
2019-04-22T01:58:23.669Z,9.05
2019-04-22T02:01:18.560Z,9.02
2019-04-22T02:03:31.142Z,8.88
2019-04-22T02:05:59.323Z,8.78
2019-04-22T02:08:31.291Z,8.64
2019-04-22T02:11:07.993Z,8.54
2019-04-22T02:13:24.633Z,8.37
2019-04-22T02:15:52.690Z,8.18
2019-04-22T02:18:23.018Z,8.00
2019-04-22T02:20:43.003Z,7.64
2019-04-22T02:28:34.255Z,7.42
2019-04-22T02:36:08.240Z,7.41
2019-04-22T02:38:34.975Z,7.37
2019-04-22T02:43:41.540Z,7.31
2019-04-22T02:46:07.821Z,7.31
2019-04-22T02:50:54.899Z,7.43
2019-04-22T02:53:29.401Z,7.57
2019-04-22T02:55:53.613Z,7.63
2019-04-22T02:58:14.138Z,7.68
2019-04-22T03:00:49.209Z,7.64
2019-04-22T03:03:20.941Z,7.69
2019-04-22T03:05:53.331Z,7.70
2019-04-22T03:08:23.624Z,7.68
2019-04-22T03:13:08.946Z,7.51
2019-04-22T03:15:48.416Z,7.55
2019-04-22T03:18:00.862Z,7.56
2019-04-22T03:20:24.737Z,7.57
2019-04-22T03:23:13.738Z,7.57
2019-04-22T03:25:51.763Z,7.58
2019-04-22T03:27:48.293Z,7.59
2019-04-22T03:30:48.101Z,7.61
2019-04-22T03:42:52.417Z,8.00
2019-04-22T03:45:20.261Z,8.01
2019-04-22T03:50:19.182Z,7.88
2019-04-22T03:52:30.989Z,7.84
2019-04-22T03:55:09.258Z,7.83
2019-04-22T03:57:46.428Z,7.92
2019-04-22T04:04:50.351Z,7.73
2019-04-22T04:07:45.601Z,7.49
2019-04-22T04:10:08.057Z,7.38
2019-04-22T04:12:24.508Z,7.26
2019-04-22T04:17:20.270Z,7.31
2019-04-22T04:20:03.302Z,7.38
2019-04-22T04:22:21.303Z,7.45
2019-04-22T04:24:53.593Z,7.47
2019-04-22T04:32:25.176Z,7.33
2019-04-22T04:34:56.164Z,7.35
2019-04-22T04:37:07.278Z,7.37
2019-04-22T04:42:04.754Z,7.95
2019-04-22T04:44:45.204Z,8.60
2019-04-22T04:47:15.587Z,9.29
2019-04-22T04:49:23.911Z,9.93
2019-04-22T04:51:47.016Z,10.12
2019-04-22T04:56:50.331Z,10.20
2019-04-22T04:59:41.292Z,10.23
2019-04-22T05:01:44.901Z,10.09
2019-04-22T05:06:48.603Z,9.93
2019-04-22T05:16:34.496Z,10.64
2019-04-22T05:21:22.520Z,11.46
2019-04-22T05:26:26.076Z,12.63
2019-04-22T05:28:44.986Z,12.73
2019-04-22T05:31:16.209Z,12.48
2019-04-22T05:33:41.113Z,12.19
2019-04-22T05:36:07.211Z,12.18
2019-04-22T05:38:39.993Z,12.52
2019-04-22T05:41:02.243Z,13.10
2019-04-22T05:43:29.486Z,13.88
2019-04-22T05:45:58.889Z,14.63
2019-04-22T05:48:30.531Z,14.99
2019-04-22T05:50:59.322Z,15.26
2019-04-22T05:53:20.063Z,15.73
2019-04-22T05:58:15.323Z,16.71
2019-04-22T06:03:37.907Z,17.64
2019-04-22T06:06:00.895Z,18.17
2019-04-22T06:08:29.231Z,18.57
2019-04-22T06:10:59.202Z,18.66
2019-04-22T06:13:27.627Z,19.12
2019-04-22T06:15:56.881Z,18.49
2019-04-22T06:18:27.256Z,18.97
2019-04-22T06:21:09.010Z,19.30
2019-04-22T06:26:04.891Z,19.98
2019-04-22T06:28:29.139Z,20.17
2019-04-22T06:33:20.295Z,20.59
2019-04-22T06:35:54.690Z,20.83
2019-04-22T06:40:46.897Z,21.86
2019-04-22T06:45:51.377Z,21.90
2019-04-22T06:48:13.118Z,22.19
2019-04-22T06:53:06.770Z,21.59
2019-04-22T06:56:11.406Z,21.27
2019-04-22T06:58:22.014Z,21.50
2019-04-22T07:00:55.806Z,21.35
2019-04-22T07:03:34.818Z,20.52
2019-04-22T07:05:51.815Z,20.01
2019-04-22T07:08:39.444Z,19.87
2019-04-22T07:10:49.138Z,19.02
2019-04-22T07:13:19.106Z,18.71
2019-04-22T07:15:50.585Z,19.00
2019-04-22T07:18:11.697Z,19.66
2019-04-22T07:23:09.649Z,18.90
2019-04-22T07:25:34.822Z,18.73
2019-04-22T07:28:05.429Z,18.70
2019-04-22T07:30:35.040Z,18.83
2019-04-22T07:33:12.743Z,18.70
2019-04-22T07:35:42.181Z,19.00
2019-04-22T07:38:00.714Z,19.28
2019-04-22T07:40:37.298Z,19.40
2019-04-22T07:43:02.523Z,19.61
2019-04-22T07:45:25.061Z,19.53
2019-04-22T07:47:52.166Z,19.65
2019-04-22T07:50:31.182Z,19.52
2019-04-22T07:52:48.129Z,19.76
2019-04-22T07:55:13.460Z,19.64
2019-04-22T07:57:48.279Z,19.54
2019-04-22T08:00:16.036Z,19.18
2019-04-22T08:02:48.457Z,19.03
2019-04-22T08:05:17.185Z,18.89
2019-04-22T08:07:37.711Z,18.93
2019-04-22T08:10:14.295Z,18.94
2019-04-22T08:12:36.315Z,18.44
2019-04-22T08:15:05.761Z,18.39
2019-04-22T08:17:52.121Z,18.32
2019-04-22T08:20:05.535Z,18.11
2019-04-22T08:22:32.460Z,18.54
2019-04-22T08:24:56.372Z,18.95
2019-04-22T08:27:22.477Z,18.51
2019-04-22T08:29:59.794Z,18.72
2019-04-22T08:32:22.224Z,18.88
2019-04-22T08:38:14.898Z,18.59
2019-04-22T08:41:06.848Z,19.11
2019-04-22T08:43:39.451Z,18.70
2019-04-22T08:46:06.221Z,18.64
2019-04-22T08:48:32.635Z,18.69
2019-04-22T08:51:07.596Z,18.50
2019-04-22T08:53:35.983Z,18.53
2019-04-22T08:56:04.714Z,18.82
2019-04-22T08:58:29.472Z,19.00
2019-04-22T09:03:18.769Z,19.46
2019-04-22T09:08:23.065Z,19.05
2019-04-22T09:10:43.571Z,19.54
2019-04-22T09:13:05.844Z,19.06
2019-04-22T09:18:08.174Z,19.65
2019-04-22T09:20:42.644Z,19.18
2019-04-22T09:23:12.278Z,19.46
2019-04-22T09:25:34.262Z,18.80
2019-04-22T09:28:00.769Z,18.96
2019-04-22T09:30:34.331Z,19.15
2019-04-22T09:33:06.704Z,19.28
2019-04-22T09:35:34.391Z,19.65
2019-04-22T09:38:10.593Z,20.11
2019-04-22T09:40:22.343Z,20.24
2019-04-22T09:45:15.256Z,20.20
2019-04-22T09:47:55.607Z,20.17
2019-04-22T09:50:15.348Z,20.17
2019-04-22T09:52:51.601Z,19.85
2019-04-22T09:55:18.309Z,19.76
2019-04-22T09:57:39.747Z,19.89
2019-04-22T10:00:08.862Z,20.01
2019-04-22T10:02:40.715Z,20.04
2019-04-22T10:05:21.063Z,20.09
2019-04-22T10:07:32.446Z,19.74
2019-04-22T10:10:09.457Z,19.72
2019-04-22T10:15:16.378Z,20.14
2019-04-22T10:17:25.802Z,20.26
2019-04-22T10:19:57.931Z,20.52
2019-04-22T10:25:01.723Z,21.24
2019-04-22T10:27:21.097Z,20.79
2019-04-22T10:30:04.185Z,20.81
2019-04-22T10:32:19.112Z,20.75
2019-04-22T10:34:34.070Z,20.61
2019-04-22T10:36:56.832Z,20.12
2019-04-22T10:39:20.212Z,20.34
2019-04-22T10:41:46.533Z,20.26
2019-04-22T10:44:13.053Z,20.56
2019-04-22T10:46:40.242Z,20.64
2019-04-22T10:49:06.482Z,20.19
2019-04-22T10:51:32.821Z,20.18
2019-04-22T10:53:59.714Z,20.54
2019-04-22T10:56:27.106Z,20.62
2019-04-22T10:58:53.335Z,20.45
2019-04-22T11:01:19.590Z,20.63
2019-04-22T11:03:45.810Z,20.84
2019-04-22T11:06:11.964Z,20.79
2019-04-22T11:08:42.446Z,20.80
2019-04-22T11:11:18.962Z,20.36
2019-04-22T11:13:35.839Z,20.55
2019-04-22T11:16:03.507Z,20.71
2019-04-22T11:18:29.679Z,20.92
2019-04-22T11:20:55.899Z,21.04
2019-04-22T11:23:22.581Z,20.98
2019-04-22T11:25:50.028Z,21.24
2019-04-22T11:28:17.842Z,21.15
2019-04-22T11:30:44.697Z,21.52
2019-04-22T11:33:12.091Z,21.45
2019-04-22T11:35:39.624Z,21.42
2019-04-22T11:38:06.611Z,21.32
2019-04-22T11:40:38.378Z,21.57
2019-04-22T11:43:01.887Z,21.73
2019-04-22T11:45:29.139Z,21.32
2019-04-22T11:47:55.533Z,21.73
2019-04-22T11:50:24.086Z,21.09
2019-04-22T11:52:50.962Z,21.06
2019-04-22T11:55:19.045Z,21.27
2019-04-22T11:57:45.438Z,21.46
2019-04-22T12:00:14.579Z,21.26
2019-04-22T12:02:41.039Z,21.27
2019-04-22T12:05:09.937Z,21.09
2019-04-22T12:07:38.988Z,20.88
2019-04-22T12:10:18.921Z,21.09
2019-04-22T12:12:36.297Z,21.28
2019-04-22T12:15:08.523Z,21.34
2019-04-22T12:17:36.145Z,21.72
2019-04-22T12:20:08.584Z,21.45
2019-04-22T12:22:33.983Z,21.58
2019-04-22T12:25:04.145Z,21.45
2019-04-22T12:27:30.597Z,21.19
2019-04-22T12:29:56.844Z,21.56
2019-04-22T12:32:23.271Z,22.03
2019-04-22T12:34:49.465Z,21.83
2019-04-22T12:37:26.062Z,21.92
2019-04-22T12:39:43.678Z,21.37
2019-04-22T12:42:11.165Z,21.34
2019-04-22T12:44:40.392Z,21.36
2019-04-22T12:47:07.950Z,21.33
2019-04-22T12:49:38.337Z,21.56
2019-04-22T12:52:03.193Z,21.45
2019-04-22T12:54:29.154Z,21.39
2019-04-22T12:56:55.730Z,21.26
2019-04-22T12:59:23.485Z,21.09
2019-04-22T13:01:51.006Z,20.85
2019-04-22T13:04:19.563Z,20.83
2019-04-22T13:06:46.037Z,20.76
2019-04-22T13:09:12.642Z,20.56
2019-04-22T13:11:40.756Z,20.89
2019-04-22T13:14:07.296Z,20.76
2019-04-22T13:16:33.596Z,20.83
2019-04-22T13:19:05.065Z,21.15
2019-04-22T13:21:28.883Z,21.51
2019-04-22T13:23:55.020Z,21.04
2019-04-22T13:26:21.280Z,21.06
2019-04-22T13:28:47.476Z,21.15
2019-04-22T13:31:13.957Z,20.88
2019-04-22T13:33:40.982Z,20.86
2019-04-22T13:36:08.034Z,20.99
2019-04-22T13:38:35.349Z,20.67
2019-04-22T13:41:18.508Z,20.33
2019-04-22T13:43:29.454Z,20.17
2019-04-22T13:45:56.193Z,20.20
2019-04-22T13:48:38.669Z,20.23
2019-04-22T13:51:20.792Z,20.07
2019-04-22T13:56:10.746Z,20.45
2019-04-22T13:58:28.917Z,20.34
2019-04-22T14:00:42.635Z,20.27
2019-04-22T14:03:09.004Z,20.23
2019-04-22T14:05:35.432Z,20.18
2019-04-22T14:08:04.289Z,20.25
2019-04-22T14:10:30.281Z,20.10
2019-04-22T14:12:57.038Z,20.05
2019-04-22T14:15:24.334Z,19.98
2019-04-22T14:17:50.453Z,20.01
2019-04-22T14:20:18.738Z,19.89
2019-04-22T14:22:46.704Z,19.89
2019-04-22T14:25:14.434Z,19.61
2019-04-22T14:27:50.025Z,19.82
2019-04-22T14:30:10.596Z,19.69
2019-04-22T14:32:38.038Z,19.73
2019-04-22T14:35:11.110Z,19.61
2019-04-22T14:37:38.612Z,19.58
2019-04-22T14:40:09.237Z,19.53
2019-04-22T14:44:42.411Z,19.79
2019-04-22T14:45:29.826Z,19.91
2019-04-22T14:48:01.449Z,19.79
2019-04-22T14:50:22.196Z,19.59
2019-04-22T14:52:52.306Z,19.39
2019-04-22T14:55:09.191Z,19.25
2019-04-22T14:57:27.756Z,19.44
2019-04-22T14:59:55.546Z,19.23
2019-04-22T15:02:21.896Z,19.35
2019-04-22T15:04:48.105Z,19.21
2019-04-22T15:07:14.987Z,19.26
2019-04-22T15:09:41.960Z,19.24
2019-04-22T15:12:16.399Z,19.19
2019-04-22T15:14:37.521Z,19.17
2019-04-22T15:17:04.925Z,19.32
2019-04-22T15:19:31.747Z,19.36
2019-04-22T15:21:58.734Z,19.15
2019-04-22T15:24:25.333Z,19.14
2019-04-22T15:26:56.196Z,19.24
2019-04-22T15:29:23.213Z,19.24
2019-04-22T15:31:49.616Z,19.33
2019-04-22T15:34:16.664Z,19.40
2019-04-22T15:36:44.348Z,19.26
2019-04-22T15:39:11.271Z,19.33
2019-04-22T15:41:41.038Z,19.40
2019-04-22T15:44:08.006Z,19.26
2019-04-22T15:46:34.980Z,18.84
2019-04-22T15:49:02.127Z,18.64
2019-04-22T15:51:30.810Z,18.63
2019-04-22T15:53:58.077Z,18.53
2019-04-22T15:56:24.175Z,18.55
2019-04-22T15:58:51.474Z,18.47
2019-04-22T16:01:25.901Z,18.52
2019-04-22T16:03:46.975Z,18.51
2019-04-22T16:06:13.415Z,18.58
2019-04-22T16:08:41.134Z,18.45
2019-04-22T16:11:07.483Z,18.54
2019-04-22T16:13:36.766Z,18.71
2019-04-22T16:16:02.678Z,18.68
2019-04-22T16:18:30.527Z,18.57
2019-04-22T16:20:58.643Z,18.30
2019-04-22T16:23:27.861Z,18.21
2019-04-22T16:25:53.623Z,18.08
2019-04-22T16:28:19.891Z,17.98
2019-04-22T16:30:47.285Z,18.07
2019-04-22T16:33:15.070Z,18.12
2019-04-22T16:35:42.652Z,17.93
2019-04-22T16:38:10.740Z,17.88
2019-04-22T16:40:36.978Z,17.79
2019-04-22T16:43:06.354Z,17.66
2019-04-22T16:45:31.768Z,17.77
2019-04-22T16:47:58.034Z,17.90
2019-04-22T16:50:25.166Z,17.76
2019-04-22T16:52:52.370Z,17.70
2019-04-22T16:55:18.969Z,17.47
2019-04-22T16:57:46.061Z,17.34
2019-04-22T17:00:13.233Z,17.33
2019-04-22T17:02:42.713Z,17.39
2019-04-22T17:05:09.375Z,17.39
2019-04-22T17:07:36.133Z,17.18
2019-04-22T17:10:05.983Z,17.10
2019-04-22T17:12:44.129Z,17.15
2019-04-22T17:15:05.665Z,17.12
2019-04-22T17:17:28.582Z,17.20
2019-04-22T17:19:55.516Z,17.10
2019-04-22T17:22:23.903Z,16.93
2019-04-22T17:24:50.148Z,16.86
2019-04-22T17:27:16.171Z,16.81
2019-04-22T17:29:42.196Z,16.71
2019-04-22T17:32:12.787Z,16.56
2019-04-22T17:34:36.594Z,16.44
2019-04-22T17:37:04.110Z,16.44
2019-04-22T17:39:43.517Z,16.32
2019-04-22T17:42:23.824Z,16.27
2019-04-22T17:44:48.733Z,14.73
2019-04-22T17:47:10.577Z,15.96
2019-04-22T17:49:50.832Z,15.96
2019-04-22T17:52:17.351Z,15.96
2019-04-22T17:54:42.175Z,15.75
2019-04-22T17:57:12.326Z,15.77
2019-04-22T17:59:38.139Z,15.65
2019-04-22T18:02:02.482Z,15.50
2019-04-22T18:04:14.367Z,15.33
2019-04-22T18:07:02.078Z,15.22
2019-04-22T18:09:40.339Z,15.16
2019-04-22T18:12:05.455Z,15.00
2019-04-22T18:14:41.129Z,14.90
2019-04-22T18:17:02.345Z,14.83
2019-04-22T18:19:26.010Z,14.78
2019-04-22T18:21:51.701Z,14.65
2019-04-22T18:24:13.011Z,14.53
2019-04-22T18:26:53.468Z,14.55
2019-04-22T18:29:21.952Z,14.35
2019-04-22T18:31:41.243Z,14.25
2019-04-22T18:34:09.808Z,14.04
2019-04-22T18:36:44.160Z,13.95
2019-04-22T18:39:19.763Z,14.00
2019-04-22T18:41:40.616Z,13.92
2019-04-22T18:44:09.978Z,13.84
2019-04-22T18:46:39.119Z,13.68
2019-04-22T18:49:08.046Z,13.69
2019-04-22T18:51:40.915Z,13.70
2019-04-22T18:54:06.500Z,13.73
2019-04-22T18:56:34.313Z,13.88
2019-04-22T18:58:53.671Z,13.89
2019-04-22T19:01:12.451Z,13.64
2019-04-22T19:03:53.091Z,13.63
2019-04-22T19:06:34.061Z,13.38
2019-04-22T19:08:55.609Z,13.31
2019-04-22T19:11:22.314Z,13.24
2019-04-22T19:14:02.308Z,13.06
2019-04-22T19:16:31.003Z,13.06
2019-04-22T19:19:08.055Z,13.01
2019-04-22T19:21:14.989Z,12.83
2019-04-22T19:23:45.277Z,12.80
2019-04-22T19:26:20.563Z,12.85
2019-04-22T19:28:42.280Z,12.82
2019-04-22T19:31:13.521Z,12.74
2019-04-22T19:33:44.449Z,12.56
2019-04-22T19:36:11.395Z,12.54
2019-04-22T19:38:24.112Z,12.53
2019-04-22T19:41:06.863Z,12.50
2019-04-22T19:43:28.770Z,12.46
2019-04-22T19:45:55.727Z,12.58
2019-04-22T19:48:37.386Z,12.55
2019-04-22T19:50:59.688Z,12.65
2019-04-22T19:53:25.532Z,12.51
2019-04-22T19:55:47.052Z,12.24
2019-04-22T19:58:17.594Z,12.25
2019-04-22T20:00:37.500Z,12.24
2019-04-22T20:03:21.800Z,12.25
2019-04-22T20:05:43.773Z,12.13
2019-04-22T20:08:31.016Z,12.05
2019-04-22T20:10:59.209Z,12.04
2019-04-22T20:13:31.098Z,12.05
2019-04-22T20:15:47.351Z,11.98
2019-04-22T20:20:58.309Z,11.89
2019-04-22T20:23:16.001Z,11.84
2019-04-22T20:25:46.376Z,11.71
2019-04-22T20:28:19.697Z,11.68
2019-04-22T20:30:46.607Z,11.62
2019-04-22T20:33:13.877Z,11.60
2019-04-22T20:35:43.524Z,11.35
2019-04-22T20:38:14.837Z,11.48
2019-04-22T20:40:39.769Z,11.29
2019-04-22T20:43:15.117Z,11.19
2019-04-22T20:45:39.595Z,11.22
2019-04-22T20:47:58.847Z,11.30
2019-04-22T20:50:34.722Z,11.13
2019-04-22T20:53:06.918Z,11.16
2019-04-22T20:55:25.433Z,11.08
2019-04-22T20:58:02.718Z,11.07
2019-04-22T21:00:23.476Z,11.19
2019-04-22T21:02:48.949Z,11.12
2019-04-22T21:05:19.684Z,11.07
2019-04-22T21:07:59.484Z,11.07
2019-04-22T21:10:19.931Z,11.00
2019-04-22T21:12:38.382Z,10.95
2019-04-22T21:15:24.148Z,10.95
2019-04-22T21:17:44.761Z,11.07
2019-04-22T21:20:18.620Z,11.20
2019-04-22T21:22:44.784Z,11.02
2019-04-22T21:25:07.212Z,10.92
2019-04-22T21:27:45.543Z,10.91
2019-04-22T21:29:58.196Z,10.75
2019-04-22T21:32:34.407Z,10.86
2019-04-22T21:35:05.804Z,10.85
2019-04-22T21:37:39.836Z,10.68
2019-04-22T21:39:57.932Z,10.55
2019-04-22T21:42:26.765Z,10.48
2019-04-22T21:44:51.008Z,10.46
2019-04-22T21:47:30.150Z,10.58
2019-04-22T21:50:10.197Z,10.43
2019-04-22T21:52:24.864Z,10.48
2019-04-22T21:55:04.321Z,10.48
2019-04-22T21:57:24.648Z,10.59
2019-04-22T21:59:46.141Z,10.55
2019-04-22T22:02:17.530Z,10.71
2019-04-22T22:04:38.680Z,10.65
2019-04-22T22:07:01.074Z,10.54
2019-04-22T22:09:44.464Z,10.49
2019-04-22T22:12:05.276Z,10.44
2019-04-22T22:14:33.557Z,10.39
2019-04-22T22:16:56.128Z,10.37
2019-04-22T22:19:29.377Z,10.22
2019-04-22T22:22:06.157Z,10.09
2019-04-22T22:24:36.999Z,9.96
2019-04-22T22:26:55.570Z,10.13
2019-04-22T22:29:38.285Z,9.90
2019-04-22T22:32:02.741Z,9.72
2019-04-22T22:34:24.914Z,9.84
2019-04-22T22:36:40.293Z,10.01
2019-04-22T22:39:08.589Z,10.08
2019-04-22T22:41:24.060Z,10.01
2019-04-22T22:43:57.015Z,10.14
2019-04-22T22:46:31.562Z,10.22
2019-04-22T22:49:12.865Z,10.10
2019-04-22T22:51:51.798Z,10.13
2019-04-22T22:54:03.685Z,10.03
2019-04-22T22:56:45.074Z,9.92
2019-04-22T22:58:59.753Z,9.96
2019-04-22T23:01:31.465Z,9.92
2019-04-22T23:03:57.579Z,9.57
2019-04-22T23:06:32.881Z,9.60
2019-04-22T23:09:00.167Z,9.61
2019-04-22T23:11:40.473Z,9.64
2019-04-22T23:13:49.987Z,9.66
2019-04-22T23:16:10.098Z,9.82
2019-04-22T23:18:25.919Z,9.76
2019-04-22T23:20:54.098Z,9.70
2019-04-22T23:23:38.249Z,9.73
2019-04-22T23:26:06.792Z,9.75
2019-04-22T23:28:30.101Z,9.68
2019-04-22T23:30:51.149Z,9.72
2019-04-22T23:33:26.485Z,9.65
2019-04-22T23:35:53.216Z,9.65
2019-04-22T23:38:21.009Z,9.60
2019-04-22T23:40:55.654Z,9.39
2019-04-22T23:43:27.596Z,9.18
2019-04-22T23:45:51.479Z,9.01
2019-04-22T23:48:11.707Z,8.94
2019-04-22T23:50:47.403Z,8.90
2019-04-22T23:53:08.640Z,8.97
2019-04-22T23:55:49.929Z,8.95
2019-04-22T23:58:09.573Z,8.99
